Time;durP1;ratioP1;P1;durP2;ratioP2;P2;SDS_P1;SDS_P2;PMS_P1;PMS_P2;Temp;Humidity;BMP_temperature;BMP_pressure;BME280_temperature;BME280_humidity;BME280_pressure;Samples;Min_cycle;Max_cycle;Signal;HPM_P1;HPM_P2
2023/11/22 00:00:09;;;;;;;31.77;16.27;;;3.60;99.90;;;;;;5029676;28;20095;-72
2023/11/22 00:02:35;;;;;;;27.60;14.20;;;3.60;99.90;;;;;;5035604;28;20024;-72
2023/11/22 00:05:01;;;;;;;28.40;14.75;;;3.60;99.90;;;;;;5032283;28;20370;-71
2023/11/22 00:07:29;;;;;;;28.58;14.32;;;3.50;99.90;;;;;;5037806;28;20033;-71
2023/11/22 00:09:55;;;;;;;24.55;14.32;;;3.50;99.90;;;;;;5039913;28;20029;-72
2023/11/22 00:12:22;;;;;;;26.25;14.32;;;3.50;99.90;;;;;;5039925;28;20021;-72
2023/11/22 00:14:48;;;;;;;26.80;15.60;;;3.40;99.90;;;;;;5031083;28;20030;-71
2023/11/22 00:17:17;;;;;;;26.60;15.52;;;3.40;99.90;;;;;;5030784;28;20081;-71
2023/11/22 00:19:44;;;;;;;26.70;14.75;;;3.30;99.90;;;;;;5032250;28;20771;-72
2023/11/22 00:22:13;;;;;;;29.63;15.55;;;3.30;99.90;;;;;;5034481;28;20021;-72
2023/11/22 00:24:40;;;;;;;25.38;13.45;;;3.30;99.90;;;;;;5033554;28;20853;-71
2023/11/22 00:27:06;;;;;;;26.67;14.25;;;3.30;99.90;;;;;;5031085;28;20070;-72
2023/11/22 00:29:32;;;;;;;27.23;14.40;;;3.20;99.90;;;;;;5039351;28;20025;-72
2023/11/22 00:31:57;;;;;;;26.25;14.48;;;3.20;99.90;;;;;;5035436;28;20021;-71
2023/11/22 00:34:23;;;;;;;29.88;16.33;;;3.20;99.90;;;;;;5039599;28;20334;-72
2023/11/22 00:36:49;;;;;;;36.08;15.80;;;3.20;99.90;;;;;;5034186;28;20452;-72
2023/11/22 00:39:15;;;;;;;32.80;16.73;;;3.20;99.90;;;;;;5030360;28;20033;-72
2023/11/22 00:41:41;;;;;;;28.73;14.38;;;3.20;99.90;;;;;;5032788;28;20072;-72
2023/11/22 00:44:06;;;;;;;30.50;16.17;;;3.20;99.90;;;;;;5035838;28;20508;-72
2023/11/22 00:46:32;;;;;;;31.77;14.40;;;3.30;99.90;;;;;;5031488;28;20076;-72
2023/11/22 00:48:58;;;;;;;31.50;14.93;;;3.30;99.90;;;;;;5038293;28;20032;-71
2023/11/22 00:51:24;;;;;;;32.40;15.65;;;3.30;99.90;;;;;;5035077;28;20468;-73
2023/11/22 00:53:50;;;;;;;28.90;15.52;;;3.20;99.90;;;;;;5042591;28;20033;-71
2023/11/22 00:56:16;;;;;;;35.03;15.90;;;3.20;99.90;;;;;;5038210;28;20079;-71
2023/11/22 00:58:42;;;;;;;30.13;15.05;;;3.20;99.90;;;;;;5041058;28;20461;-71
2023/11/22 01:01:08;;;;;;;30.67;15.30;;;3.20;99.90;;;;;;5034406;28;20052;-71
2023/11/22 01:03:34;;;;;;;28.33;14.95;;;3.20;99.90;;;;;;5037661;28;20127;-71
2023/11/22 01:05:59;;;;;;;30.83;15.50;;;3.10;99.90;;;;;;5041111;28;20041;-71
2023/11/22 01:08:25;;;;;;;25.58;13.95;;;3.10;99.90;;;;;;5050798;28;20027;-72
2023/11/22 01:10:50;;;;;;;28.50;14.52;;;3.00;99.90;;;;;;5044511;28;20108;-72
2023/11/22 01:13:16;;;;;;;29.35;15.23;;;3.00;99.90;;;;;;5034554;28;20025;-72
2023/11/22 01:15:41;;;;;;;27.80;13.88;;;3.00;99.90;;;;;;5041340;28;20021;-72
2023/11/22 01:18:07;;;;;;;29.30;15.25;;;2.90;99.90;;;;;;5044961;28;20029;-71
2023/11/22 01:20:33;;;;;;;31.33;15.30;;;2.90;99.90;;;;;;5035052;28;20083;-72
2023/11/22 01:22:58;;;;;;;28.35;14.35;;;2.90;99.90;;;;;;5037988;28;20041;-71
2023/11/22 01:25:24;;;;;;;30.60;15.63;;;2.90;99.90;;;;;;5037087;28;20116;-72
2023/11/22 01:27:49;;;;;;;30.27;14.60;;;2.90;99.90;;;;;;5040932;28;20073;-71
2023/11/22 01:30:15;;;;;;;30.42;14.93;;;2.90;99.90;;;;;;5035989;28;20376;-71
2023/11/22 01:32:41;;;;;;;29.85;14.82;;;2.80;99.90;;;;;;5043354;28;20032;-71
2023/11/22 01:35:07;;;;;;;27.35;13.63;;;2.80;99.90;;;;;;5043001;28;20438;-72
2023/11/22 01:37:33;;;;;;;27.55;13.23;;;2.80;99.90;;;;;;5035088;28;20393;-72
2023/11/22 01:39:58;;;;;;;28.52;14.27;;;2.80;99.90;;;;;;5033710;28;20021;-71
2023/11/22 01:42:25;;;;;;;28.80;14.40;;;2.80;99.90;;;;;;5033182;28;21062;-71
2023/11/22 01:44:52;;;;;;;27.05;13.75;;;2.70;99.90;;;;;;5033183;28;20044;-71
2023/11/22 01:47:18;;;;;;;30.17;14.35;;;2.60;99.90;;;;;;5039543;28;20041;-71
2023/11/22 01:49:44;;;;;;;28.17;14.95;;;2.60;99.90;;;;;;5033024;28;20021;-72
2023/11/22 01:52:10;;;;;;;29.83;15.18;;;2.60;99.90;;;;;;5044329;28;20033;-72
2023/11/22 01:54:36;;;;;;;31.35;14.43;;;2.60;99.90;;;;;;5042695;28;20040;-71
2023/11/22 01:57:02;;;;;;;26.40;13.10;;;2.60;99.90;;;;;;5033696;28;20077;-71
2023/11/22 01:59:31;;;;;;;34.22;15.10;;;2.60;99.90;;;;;;5033479;28;20119;-72
2023/11/22 02:01:57;;;;;;;31.00;15.25;;;2.60;99.90;;;;;;5044110;28;20123;-72
2023/11/22 02:04:22;;;;;;;26.67;14.13;;;2.60;99.90;;;;;;5039662;28;20108;-71
2023/11/22 02:06:49;;;;;;;28.13;14.13;;;2.50;99.90;;;;;;5034529;28;20057;-71
2023/11/22 02:09:15;;;;;;;32.38;14.98;;;2.50;99.90;;;;;;5036231;28;20025;-71
2023/11/22 02:11:42;;;;;;;30.58;14.65;;;2.40;99.90;;;;;;5048151;28;20020;-71
2023/11/22 02:14:08;;;;;;;31.77;13.73;;;2.40;99.90;;;;;;5033006;28;20022;-71
2023/11/22 02:16:36;;;;;;;27.52;13.43;;;2.30;99.90;;;;;;5032755;28;20014;-71
2023/11/22 02:19:05;;;;;;;29.83;14.93;;;2.30;99.90;;;;;;5032185;28;20037;-72
2023/11/22 02:21:30;;;;;;;34.20;15.50;;;2.20;99.90;;;;;;5041310;28;20100;-72
2023/11/22 02:23:56;;;;;;;32.25;14.98;;;2.30;99.90;;;;;;5035200;28;20545;-71
2023/11/22 02:26:22;;;;;;;39.83;14.10;;;2.30;99.90;;;;;;5042385;28;20120;-71
2023/11/22 02:28:48;;;;;;;26.05;12.98;;;2.30;99.90;;;;;;5047056;28;20108;-71
2023/11/22 02:31:13;;;;;;;27.77;13.65;;;2.20;99.90;;;;;;5045290;28;20033;-71
2023/11/22 02:33:39;;;;;;;27.67;13.52;;;2.10;99.90;;;;;;5033010;28;20119;-71
2023/11/22 02:36:07;;;;;;;31.42;15.63;;;2.10;99.90;;;;;;5046692;28;20030;-71
2023/11/22 02:38:34;;;;;;;30.95;14.40;;;2.10;99.90;;;;;;5033934;28;20024;-71
2023/11/22 02:41:01;;;;;;;32.00;16.02;;;2.10;99.90;;;;;;5041742;28;20034;-71
2023/11/22 02:43:26;;;;;;;25.10;13.35;;;2.20;99.90;;;;;;5033493;28;20041;-72
2023/11/22 02:45:52;;;;;;;30.13;15.57;;;2.20;99.90;;;;;;5044358;28;20083;-71
2023/11/22 02:48:18;;;;;;;29.45;14.63;;;2.10;99.90;;;;;;5036337;28;20104;-71
2023/11/22 02:50:44;;;;;;;33.03;15.40;;;2.10;99.90;;;;;;5042529;28;20037;-71
2023/11/22 02:53:10;;;;;;;31.65;15.05;;;2.10;99.90;;;;;;5031530;28;20546;-71
2023/11/22 02:55:35;;;;;;;34.40;15.50;;;2.10;99.90;;;;;;5034138;28;20029;-71
2023/11/22 02:58:02;;;;;;;33.33;16.45;;;2.10;99.90;;;;;;5044889;28;20087;-71
2023/11/22 03:00:29;;;;;;;39.95;15.88;;;2.10;99.90;;;;;;5041195;28;20451;-71
2023/11/22 03:02:55;;;;;;;40.33;15.60;;;2.20;99.90;;;;;;5039061;28;20049;-71
2023/11/22 03:05:22;;;;;;;35.28;16.23;;;2.20;99.90;;;;;;5031838;28;20412;-71
2023/11/22 03:07:48;;;;;;;35.58;15.90;;;2.20;99.90;;;;;;5032814;28;20544;-71
2023/11/22 03:10:13;;;;;;;32.38;16.02;;;2.20;99.90;;;;;;5035792;28;20049;-71
2023/11/22 03:12:39;;;;;;;33.92;15.13;;;2.20;99.90;;;;;;5034449;28;20068;-71
2023/11/22 03:15:05;;;;;;;35.72;16.13;;;2.20;99.90;;;;;;5034540;28;20030;-71
2023/11/22 03:17:32;;;;;;;26.70;13.20;;;2.20;99.90;;;;;;5033513;28;20021;-71
2023/11/22 03:19:58;;;;;;;34.10;16.13;;;2.20;99.90;;;;;;5050557;28;20048;-71
2023/11/22 03:22:25;;;;;;;35.10;15.68;;;2.20;99.90;;;;;;5034997;28;20029;-71
2023/11/22 03:24:51;;;;;;;33.40;14.80;;;2.20;99.90;;;;;;5038660;28;20017;-71
2023/11/22 03:27:17;;;;;;;32.85;14.70;;;2.20;99.90;;;;;;5036956;28;20079;-71
2023/11/22 03:29:42;;;;;;;35.53;15.90;;;2.20;99.90;;;;;;5038575;28;20936;-71
2023/11/22 03:32:08;;;;;;;34.05;16.45;;;2.20;99.90;;;;;;5046130;28;20029;-71
2023/11/22 03:34:33;;;;;;;34.13;15.23;;;2.20;99.90;;;;;;5031221;28;20025;-71
2023/11/22 03:36:59;;;;;;;33.50;15.20;;;2.10;99.90;;;;;;5036411;28;20041;-71
2023/11/22 03:39:24;;;;;;;36.15;15.27;;;2.10;99.90;;;;;;5039104;28;20087;-70
2023/11/22 03:41:50;;;;;;;37.22;15.85;;;2.10;99.90;;;;;;5031350;28;20033;-71
2023/11/22 03:44:16;;;;;;;39.50;17.48;;;2.10;99.90;;;;;;5040078;28;20049;-71
2023/11/22 03:46:42;;;;;;;38.13;15.73;;;2.10;99.90;;;;;;5040875;28;20112;-71
2023/11/22 03:49:08;;;;;;;33.30;14.35;;;2.10;99.90;;;;;;5030978;28;20133;-71
2023/11/22 03:51:35;;;;;;;39.80;16.17;;;2.00;99.90;;;;;;5044415;28;20100;-71
2023/11/22 03:54:02;;;;;;;32.53;15.05;;;2.00;99.90;;;;;;5034339;28;20116;-71
2023/11/22 03:56:28;;;;;;;35.15;14.77;;;2.00;99.90;;;;;;5035664;28;20086;-71
2023/11/22 03:58:54;;;;;;;34.17;15.35;;;1.90;99.90;;;;;;5034895;28;20092;-71
2023/11/22 04:01:20;;;;;;;30.92;14.15;;;1.90;99.90;;;;;;5031313;28;20391;-71
2023/11/22 04:03:48;;;;;;;31.23;13.80;;;1.90;99.90;;;;;;5030266;28;20441;-71
2023/11/22 04:06:16;;;;;;;33.30;14.90;;;1.80;99.90;;;;;;5031070;28;20382;-71
2023/11/22 04:08:46;;;;;;;29.23;12.70;;;1.80;99.90;;;;;;5031981;28;20664;-71
2023/11/22 04:11:12;;;;;;;36.72;11.85;;;1.70;99.90;;;;;;5034299;28;20115;-71
2023/11/22 04:13:38;;;;;;;34.92;10.98;;;1.60;99.90;;;;;;5037109;28;20022;-71
2023/11/22 04:16:08;;;;;;;91.88;10.55;;;1.50;99.90;;;;;;5035766;28;20112;-71
2023/11/22 04:18:37;;;;;;;69.57;10.18;;;1.30;99.90;;;;;;5038112;28;20119;-71
2023/11/22 04:21:04;;;;;;;21.77;9.57;;;1.30;99.90;;;;;;5045806;28;20037;-71
2023/11/22 04:23:31;;;;;;;25.77;10.00;;;1.20;99.90;;;;;;5031471;28;20556;-71
2023/11/22 04:25:58;;;;;;;22.77;10.43;;;1.10;99.90;;;;;;5029963;28;20116;-71
2023/11/22 04:28:24;;;;;;;31.92;10.32;;;1.10;99.90;;;;;;5030175;28;20040;-71
2023/11/22 04:30:51;;;;;;;55.65;9.38;;;1.10;99.90;;;;;;5040703;28;20029;-70
2023/11/22 04:33:17;;;;;;;33.70;8.93;;;1.00;99.90;;;;;;5037618;28;20021;-71
2023/11/22 04:35:43;;;;;;;43.08;9.05;;;1.00;99.90;;;;;;5043929;28;20029;-70
2023/11/22 04:38:08;;;;;;;29.20;10.38;;;1.00;99.90;;;;;;5030721;28;20029;-71
2023/11/22 04:40:34;;;;;;;26.60;10.60;;;0.90;99.90;;;;;;5034242;28;20033;-71
2023/11/22 04:43:00;;;;;;;29.75;11.95;;;0.90;99.90;;;;;;5031311;28;20045;-70
2023/11/22 04:45:26;;;;;;;31.65;12.75;;;0.90;99.90;;;;;;5033000;28;20029;-71
2023/11/22 04:47:51;;;;;;;32.33;12.50;;;0.90;99.90;;;;;;5033046;28;20041;-71
2023/11/22 04:50:17;;;;;;;27.75;12.63;;;0.90;99.90;;;;;;5032909;28;21879;-71
2023/11/22 04:52:43;;;;;;;23.98;10.60;;;0.90;99.90;;;;;;5037796;28;20036;-71
2023/11/22 04:55:09;;;;;;;27.35;12.18;;;0.80;99.90;;;;;;5040700;28;20104;-70
2023/11/22 04:57:34;;;;;;;25.90;12.07;;;0.80;99.90;;;;;;5039342;28;20031;-70
2023/11/22 05:00:00;;;;;;;27.88;11.77;;;0.80;99.90;;;;;;5031387;28;20022;-71
2023/11/22 05:02:26;;;;;;;28.75;11.98;;;0.70;99.90;;;;;;5033196;28;20421;-71
2023/11/22 05:04:53;;;;;;;29.70;12.10;;;0.70;99.90;;;;;;5037577;28;20037;-71
2023/11/22 05:07:21;;;;;;;29.13;12.18;;;0.70;99.90;;;;;;5035804;28;20033;-71
2023/11/22 05:09:46;;;;;;;27.13;10.63;;;0.70;99.90;;;;;;5031684;28;20033;-71
2023/11/22 05:12:12;;;;;;;28.98;12.27;;;0.60;99.90;;;;;;5027797;28;20021;-70
2023/11/22 05:14:38;;;;;;;31.90;12.40;;;0.60;99.90;;;;;;5031891;28;20028;-71
2023/11/22 05:17:04;;;;;;;34.55;14.05;;;0.60;99.90;;;;;;5034625;28;20496;-71
2023/11/22 05:19:31;;;;;;;25.88;12.38;;;0.60;99.90;;;;;;5034906;28;20033;-71
2023/11/22 05:21:57;;;;;;;30.60;11.85;;;0.70;99.90;;;;;;5032312;28;20038;-71
2023/11/22 05:24:22;;;;;;;27.48;10.90;;;0.60;99.90;;;;;;5033998;28;20472;-70
2023/11/22 05:26:48;;;;;;;31.30;13.38;;;0.60;99.90;;;;;;5044775;28;20105;-70
2023/11/22 05:29:13;;;;;;;23.55;11.18;;;0.60;99.90;;;;;;5037444;28;20605;-71
2023/11/22 05:31:39;;;;;;;30.13;11.82;;;0.60;99.90;;;;;;5037282;28;20044;-71
2023/11/22 05:34:04;;;;;;;31.42;11.70;;;0.70;99.90;;;;;;5035950;28;20037;-70
2023/11/22 05:36:30;;;;;;;27.67;11.65;;;0.70;99.90;;;;;;5031484;28;20021;-70
2023/11/22 05:38:58;;;;;;;29.80;12.73;;;0.70;99.90;;;;;;5042712;28;20104;-71
2023/11/22 05:41:25;;;;;;;29.83;11.68;;;0.70;99.90;;;;;;5034944;28;20033;-71
2023/11/22 05:43:52;;;;;;;30.65;12.20;;;0.70;99.90;;;;;;5037085;28;20052;-70
2023/11/22 05:46:24;;;;;;;30.42;12.38;;;0.80;99.90;;;;;;5048463;28;20052;-71
2023/11/22 05:48:56;;;;;;;29.80;12.60;;;0.80;99.90;;;;;;5041814;28;20419;-71
2023/11/22 05:51:22;;;;;;;34.88;13.02;;;0.80;99.90;;;;;;5034846;28;20047;-71
2023/11/22 05:53:47;;;;;;;31.75;13.15;;;0.90;99.90;;;;;;5037172;28;20537;-71
2023/11/22 05:56:14;;;;;;;37.83;13.27;;;0.90;99.90;;;;;;5038684;28;20552;-71
2023/11/22 05:58:40;;;;;;;30.83;14.05;;;0.90;99.90;;;;;;5037095;28;20029;-70
2023/11/22 06:01:07;;;;;;;33.08;13.70;;;1.00;99.90;;;;;;5033630;28;20040;-71
2023/11/22 06:03:33;;;;;;;34.50;14.23;;;1.00;99.90;;;;;;5033384;28;20018;-71
2023/11/22 06:05:59;;;;;;;31.83;12.60;;;1.00;99.90;;;;;;5035178;28;20044;-70
2023/11/22 06:08:25;;;;;;;33.05;13.00;;;1.10;99.90;;;;;;5035206;28;20037;-71
2023/11/22 06:10:52;;;;;;;31.30;13.32;;;1.10;99.90;;;;;;5035632;28;20021;-71
2023/11/22 06:13:18;;;;;;;34.38;13.55;;;1.10;99.90;;;;;;5033721;28;20040;-71
2023/11/22 06:15:44;;;;;;;30.42;12.95;;;1.10;99.90;;;;;;5045056;28;20025;-71
2023/11/22 06:18:10;;;;;;;36.45;14.60;;;1.20;99.90;;;;;;5035168;28;20037;-71
2023/11/22 06:20:35;;;;;;;32.53;13.18;;;1.20;99.90;;;;;;5034522;28;20029;-71
2023/11/22 06:23:02;;;;;;;33.10;13.75;;;1.20;99.90;;;;;;5044126;28;20029;-71
2023/11/22 06:25:27;;;;;;;27.08;11.93;;;1.30;99.90;;;;;;5033770;28;20057;-71
2023/11/22 06:27:53;;;;;;;29.92;12.63;;;1.30;99.90;;;;;;5037814;28;20073;-71
2023/11/22 06:30:19;;;;;;;28.05;11.40;;;1.30;99.90;;;;;;5040442;28;20106;-71
2023/11/22 06:32:44;;;;;;;30.25;11.88;;;1.30;99.90;;;;;;5036575;28;20125;-71
2023/11/22 06:35:14;;;;;;;30.30;12.30;;;1.30;99.90;;;;;;5039927;28;20021;-71
2023/11/22 06:37:40;;;;;;;31.30;13.40;;;1.30;99.90;;;;;;5035333;28;20041;-71
2023/11/22 06:40:06;;;;;;;33.78;13.15;;;1.30;99.90;;;;;;5043763;28;20032;-71
2023/11/22 06:42:33;;;;;;;33.63;13.18;;;1.40;99.90;;;;;;5044861;28;20088;-71
2023/11/22 06:45:00;;;;;;;32.67;14.15;;;1.40;99.90;;;;;;5038971;28;20033;-71
2023/11/22 06:47:27;;;;;;;37.95;14.35;;;1.40;99.90;;;;;;5044369;28;20037;-71
2023/11/22 06:49:53;;;;;;;31.17;13.43;;;1.50;99.90;;;;;;5036803;28;20017;-71
2023/11/22 06:52:18;;;;;;;35.85;15.43;;;1.50;99.90;;;;;;5042860;28;20022;-70
2023/11/22 06:54:44;;;;;;;36.33;14.85;;;1.50;99.90;;;;;;5039550;28;20021;-71
2023/11/22 06:57:10;;;;;;;34.72;14.07;;;1.50;99.90;;;;;;5034065;28;20026;-71
2023/11/22 06:59:35;;;;;;;37.80;13.27;;;1.60;99.90;;;;;;5034360;28;20481;-71
2023/11/22 07:02:01;;;;;;;35.88;13.88;;;1.60;99.90;;;;;;5052439;28;20491;-71
2023/11/22 07:04:27;;;;;;;42.13;13.57;;;1.60;99.90;;;;;;5043604;28;20025;-71
2023/11/22 07:06:53;;;;;;;35.17;14.70;;;1.60;99.90;;;;;;5042153;28;20032;-71
2023/11/22 07:09:19;;;;;;;32.05;13.35;;;1.70;99.90;;;;;;5038896;28;20017;-71
2023/11/22 07:11:45;;;;;;;37.13;14.35;;;1.70;99.90;;;;;;5035661;28;20437;-71
2023/11/22 07:14:10;;;;;;;34.92;14.20;;;1.70;99.90;;;;;;5050676;28;20028;-71
2023/11/22 07:16:37;;;;;;;35.97;14.82;;;1.70;99.90;;;;;;5031853;28;20029;-71
2023/11/22 07:19:03;;;;;;;33.90;15.10;;;1.80;99.90;;;;;;5031759;28;20108;-71
2023/11/22 07:21:32;;;;;;;32.67;14.00;;;1.80;99.90;;;;;;5038286;28;20507;-71
2023/11/22 07:23:59;;;;;;;30.20;13.95;;;1.90;99.90;;;;;;5038191;28;20025;-71
2023/11/22 07:26:26;;;;;;;36.90;14.15;;;1.90;99.90;;;;;;5032095;28;20031;-71
2023/11/22 07:28:52;;;;;;;32.45;14.48;;;1.90;99.90;;;;;;5037611;28;20500;-70
2023/11/22 07:31:19;;;;;;;33.67;14.27;;;2.00;99.90;;;;;;5041302;28;20032;-70
2023/11/22 07:33:45;;;;;;;41.83;15.85;;;2.00;99.90;;;;;;5041374;28;20060;-70
2023/11/22 07:36:14;;;;;;;41.33;15.80;;;2.10;99.90;;;;;;5031773;28;20068;-70
2023/11/22 07:38:40;;;;;;;35.60;13.93;;;2.10;99.90;;;;;;5033539;28;20029;-70
2023/11/22 07:41:07;;;;;;;37.50;16.15;;;2.20;99.90;;;;;;5044185;28;20021;-70
2023/11/22 07:43:32;;;;;;;36.13;15.20;;;2.20;99.90;;;;;;5040520;28;20501;-70
2023/11/22 07:45:59;;;;;;;40.45;16.55;;;2.20;99.90;;;;;;5045633;28;20025;-70
2023/11/22 07:48:25;;;;;;;38.80;15.38;;;2.30;99.90;;;;;;5039868;28;20029;-70
2023/11/22 07:50:51;;;;;;;40.00;16.95;;;2.40;99.90;;;;;;5045054;28;20366;-70
2023/11/22 07:53:17;;;;;;;39.08;15.88;;;2.40;99.90;;;;;;5035867;28;20049;-70
2023/11/22 07:55:43;;;;;;;45.92;16.67;;;2.40;99.90;;;;;;5033927;28;20055;-70
2023/11/22 07:58:10;;;;;;;41.70;15.80;;;2.50;99.90;;;;;;5046497;28;20053;-70
2023/11/22 08:00:36;;;;;;;35.72;15.07;;;2.50;99.90;;;;;;5033379;28;20629;-71
2023/11/22 08:03:02;;;;;;;37.20;15.70;;;2.50;99.90;;;;;;5034204;28;20028;-70
2023/11/22 08:05:29;;;;;;;38.40;15.35;;;2.50;99.90;;;;;;5037314;28;20075;-71
2023/11/22 08:07:54;;;;;;;37.55;15.00;;;2.50;99.90;;;;;;5031149;28;20033;-71
2023/11/22 08:10:20;;;;;;;37.63;15.52;;;2.60;99.90;;;;;;5039308;28;20045;-71
2023/11/22 08:12:47;;;;;;;37.40;14.93;;;2.60;99.90;;;;;;5042429;28;20036;-71
2023/11/22 08:15:14;;;;;;;44.30;16.38;;;2.60;99.90;;;;;;5032533;28;20028;-71
2023/11/22 08:17:40;;;;;;;37.65;15.30;;;2.70;99.90;;;;;;5030129;28;20033;-71
2023/11/22 08:20:11;;;;;;;42.05;17.65;;;2.80;99.90;;;;;;5045784;28;20067;-71
2023/11/22 08:22:38;;;;;;;41.42;17.52;;;2.90;99.90;;;;;;5040310;28;20116;-70
2023/11/22 08:25:05;;;;;;;43.13;17.60;;;3.00;99.90;;;;;;5035451;28;20484;-71
2023/11/22 08:27:31;;;;;;;41.97;19.13;;;3.10;99.90;;;;;;5031041;28;20045;-71
2023/11/22 08:29:57;;;;;;;45.80;19.50;;;3.20;99.90;;;;;;5038366;28;20092;-71
2023/11/22 08:32:27;;;;;;;46.13;19.33;;;3.20;99.90;;;;;;5035399;28;20109;-71
2023/11/22 08:34:53;;;;;;;44.17;19.48;;;3.30;99.90;;;;;;5031693;28;20496;-71
2023/11/22 08:37:22;;;;;;;45.70;19.90;;;3.40;99.90;;;;;;5036387;28;20021;-71
2023/11/22 08:39:48;;;;;;;46.85;19.25;;;3.40;99.90;;;;;;5038800;28;20040;-71
2023/11/22 08:42:14;;;;;;;50.30;20.92;;;3.40;99.90;;;;;;5035345;28;20057;-71
2023/11/22 08:44:40;;;;;;;49.88;20.38;;;3.50;99.90;;;;;;5038824;28;20080;-71
2023/11/22 08:47:06;;;;;;;53.58;23.30;;;3.50;99.90;;;;;;5044192;28;20111;-71
2023/11/22 08:49:33;;;;;;;52.53;22.10;;;3.60;99.90;;;;;;5030585;28;20021;-71
2023/11/22 08:51:59;;;;;;;58.75;21.48;;;3.60;99.90;;;;;;5039806;28;20060;-71
2023/11/22 08:54:28;;;;;;;52.67;22.38;;;3.60;99.90;;;;;;5041531;28;20060;-71
2023/11/22 08:56:56;;;;;;;55.63;22.45;;;3.60;99.90;;;;;;5033884;28;20034;-71
2023/11/22 08:59:21;;;;;;;50.08;22.58;;;3.70;99.90;;;;;;5035554;28;20025;-70
2023/11/22 09:01:47;;;;;;;56.30;23.40;;;3.70;99.90;;;;;;5035698;28;20092;-71
2023/11/22 09:04:13;;;;;;;56.92;22.48;;;3.80;99.90;;;;;;5051198;28;20028;-71
2023/11/22 09:06:39;;;;;;;60.72;24.65;;;3.70;99.90;;;;;;5037143;28;20048;-71
2023/11/22 09:09:05;;;;;;;55.53;22.15;;;3.80;99.90;;;;;;5037910;28;20032;-71
2023/11/22 09:11:31;;;;;;;54.03;23.88;;;3.80;99.90;;;;;;5034281;28;20033;-71
2023/11/22 09:13:57;;;;;;;54.17;22.15;;;3.80;99.90;;;;;;5043242;28;20025;-71
2023/11/22 09:16:25;;;;;;;49.97;23.75;;;3.90;99.90;;;;;;5036333;28;20029;-71
2023/11/22 09:18:51;;;;;;;57.45;22.17;;;3.90;99.90;;;;;;5034554;28;20466;-70
2023/11/22 09:21:16;;;;;;;49.97;22.02;;;3.90;99.90;;;;;;5034572;28;20125;-71
2023/11/22 09:23:43;;;;;;;55.78;23.98;;;3.90;99.90;;;;;;5034117;28;20133;-71
2023/11/22 09:26:08;;;;;;;58.78;23.58;;;3.90;99.90;;;;;;5034531;28;20021;-70
2023/11/22 09:28:34;;;;;;;65.65;25.67;;;3.90;99.90;;;;;;5041253;28;20040;-71
2023/11/22 09:31:05;;;;;;;70.38;26.80;;;3.90;99.90;;;;;;5047983;28;20025;-71
2023/11/22 09:33:31;;;;;;;66.90;27.17;;;4.00;99.90;;;;;;5046638;28;20025;-71
2023/11/22 09:35:58;;;;;;;66.53;24.70;;;4.00;99.90;;;;;;5053485;28;20033;-71
2023/11/22 09:38:24;;;;;;;64.30;26.13;;;4.00;99.90;;;;;;5034291;28;20078;-72
2023/11/22 09:40:50;;;;;;;60.75;24.60;;;4.00;99.90;;;;;;5034445;28;20025;-71
2023/11/22 09:43:17;;;;;;;54.30;23.42;;;4.00;99.90;;;;;;5046608;28;20052;-71
2023/11/22 09:45:50;;;;;;;55.90;25.17;;;4.00;99.90;;;;;;5050059;28;20025;-71
2023/11/22 09:48:20;;;;;;;64.10;26.75;;;4.00;99.90;;;;;;5053611;28;20032;-71
2023/11/22 09:51:11;;;;;;;62.95;27.20;;;4.00;99.90;;;;;;5053902;28;20043;-71
2023/11/22 09:53:45;;;;;;;66.13;26.95;;;4.10;99.90;;;;;;5045518;28;20033;-71
2023/11/22 09:56:13;;;;;;;70.32;29.17;;;4.20;99.90;;;;;;5051058;28;20029;-71
2023/11/22 09:58:44;;;;;;;68.05;27.10;;;4.20;99.90;;;;;;5039108;28;20127;-71
2023/11/22 10:01:11;;;;;;;65.57;26.73;;;4.20;99.90;;;;;;5035754;28;20040;-71
2023/11/22 10:03:37;;;;;;;73.00;29.15;;;4.30;99.90;;;;;;5034293;28;20762;-71
2023/11/22 10:06:04;;;;;;;71.90;29.17;;;4.30;99.90;;;;;;5033720;28;20037;-71
2023/11/22 10:08:30;;;;;;;66.78;27.08;;;4.40;99.90;;;;;;5041227;28;20532;-71
2023/11/22 10:10:56;;;;;;;67.88;28.08;;;4.50;99.90;;;;;;5041445;28;20104;-71
2023/11/22 10:13:22;;;;;;;68.85;28.23;;;4.50;99.90;;;;;;5050184;28;20056;-71
2023/11/22 10:15:55;;;;;;;66.95;27.23;;;4.50;99.90;;;;;;5046845;28;20033;-71
2023/11/22 10:18:21;;;;;;;69.75;28.48;;;4.50;99.90;;;;;;5035746;28;20059;-71
2023/11/22 10:20:49;;;;;;;74.15;29.63;;;4.50;99.90;;;;;;5046623;28;20133;-70
2023/11/22 10:23:19;;;;;;;73.32;30.05;;;4.50;99.90;;;;;;5036776;28;20032;-71
2023/11/22 10:25:52;;;;;;;64.72;28.25;;;4.50;99.90;;;;;;5035585;28;20028;-71
2023/11/22 10:28:23;;;;;;;60.95;27.05;;;4.70;99.90;;;;;;5032818;28;20037;-71
2023/11/22 10:30:51;;;;;;;68.18;27.52;;;4.70;99.90;;;;;;5038281;28;20025;-71
2023/11/22 10:33:17;;;;;;;62.00;26.52;;;4.70;99.90;;;;;;5034756;28;20033;-71
2023/11/22 10:35:53;;;;;;;60.17;25.67;;;4.70;99.90;;;;;;5034797;28;20110;-71
2023/11/22 10:38:20;;;;;;;58.55;25.17;;;4.80;99.90;;;;;;5036027;28;20223;-71
2023/11/22 10:40:47;;;;;;;55.03;24.67;;;4.80;99.90;;;;;;5045054;28;20032;-71
2023/11/22 10:43:14;;;;;;;61.47;25.80;;;4.90;99.90;;;;;;5051878;28;20049;-71
2023/11/22 10:45:44;;;;;;;60.70;25.10;;;4.90;99.90;;;;;;5037157;28;20033;-71
2023/11/22 10:48:11;;;;;;;62.70;26.58;;;5.00;99.90;;;;;;5039041;28;20100;-71
2023/11/22 10:50:37;;;;;;;53.05;23.58;;;5.00;99.90;;;;;;5042646;28;20029;-71
2023/11/22 10:53:07;;;;;;;57.00;25.30;;;5.10;99.90;;;;;;5043397;28;20500;-71
2023/11/22 10:55:34;;;;;;;62.72;28.50;;;5.10;99.90;;;;;;5036188;28;20568;-71
2023/11/22 10:58:04;;;;;;;54.75;25.98;;;5.10;99.90;;;;;;5032708;28;20041;-71
2023/11/22 11:00:33;;;;;;;56.72;25.02;;;5.20;99.90;;;;;;5039484;28;20040;-71
2023/11/22 11:03:09;;;;;;;59.80;27.70;;;5.20;99.90;;;;;;5051117;28;20025;-71
2023/11/22 11:05:39;;;;;;;67.97;28.45;;;5.20;99.90;;;;;;5031935;28;20033;-71
2023/11/22 11:08:12;;;;;;;60.75;27.48;;;5.40;99.90;;;;;;5033894;28;20128;-71
2023/11/22 11:10:42;;;;;;;64.63;28.23;;;5.40;99.90;;;;;;5037024;28;20035;-72
2023/11/22 11:13:09;;;;;;;63.80;28.17;;;5.50;99.90;;;;;;5037475;28;20045;-71
2023/11/22 11:15:38;;;;;;;63.25;27.35;;;5.50;99.90;;;;;;5031322;28;20444;-71
2023/11/22 11:18:05;;;;;;;57.72;27.83;;;5.50;99.90;;;;;;5035780;28;20075;-71
2023/11/22 11:21:07;;;;;;;57.25;26.45;;;5.40;99.90;;;;;;5035112;28;20115;-71
2023/11/22 11:23:33;;;;;;;60.15;27.80;;;5.40;99.90;;;;;;5039699;28;20026;-71
2023/11/22 11:26:15;;;;;;;63.80;30.73;;;5.30;99.90;;;;;;5039691;28;20025;-71
2023/11/22 11:28:47;;;;;;;68.18;32.90;;;5.30;99.90;;;;;;5034198;28;20606;-71
2023/11/22 11:31:14;;;;;;;62.72;30.42;;;5.30;99.90;;;;;;5033387;28;20040;-72
2023/11/22 11:34:10;;;;;;;63.97;31.98;;;5.30;99.90;;;;;;5029328;28;20029;-71
2023/11/22 11:36:40;;;;;;;62.33;31.38;;;5.40;99.90;;;;;;5031429;28;20485;-71
2023/11/22 11:39:14;;;;;;;60.28;31.23;;;5.40;99.90;;;;;;5031559;28;20048;-71
2023/11/22 11:41:41;;;;;;;61.47;30.08;;;5.50;99.90;;;;;;5037272;28;20041;-72
2023/11/22 11:44:09;;;;;;;67.10;31.98;;;5.50;99.90;;;;;;5048283;28;20129;-71
2023/11/22 11:46:36;;;;;;;57.65;27.85;;;5.60;99.90;;;;;;5033204;28;20065;-71
2023/11/22 11:49:07;;;;;;;55.17;26.83;;;5.60;99.90;;;;;;5035596;28;20112;-72
2023/11/22 11:51:33;;;;;;;53.85;26.08;;;5.70;99.90;;;;;;5039709;28;20358;-71
2023/11/22 11:53:58;;;;;;;53.83;26.05;;;5.70;99.90;;;;;;5028675;28;20298;-71
2023/11/22 11:56:26;;;;;;;48.60;23.70;;;5.70;99.90;;;;;;5041135;28;20025;-71
2023/11/22 11:58:55;;;;;;;54.72;26.30;;;5.60;99.90;;;;;;5041509;28;20036;-71
2023/11/22 12:01:21;;;;;;;49.45;23.73;;;5.60;99.90;;;;;;5031876;28;20099;-71
2023/11/22 12:03:47;;;;;;;49.80;23.58;;;5.60;99.90;;;;;;5032891;28;20030;-71
2023/11/22 12:06:16;;;;;;;49.05;21.98;;;5.60;99.90;;;;;;5049861;28;20052;-71
2023/11/22 12:08:43;;;;;;;46.35;21.67;;;5.70;99.90;;;;;;5032773;28;20846;-71
2023/11/22 12:11:10;;;;;;;48.13;22.08;;;5.70;99.90;;;;;;5033481;28;20039;-71
2023/11/22 12:13:42;;;;;;;49.25;22.38;;;5.70;99.90;;;;;;5032725;28;20022;-71
2023/11/22 12:16:10;;;;;;;51.00;22.33;;;5.70;99.90;;;;;;5033527;28;20033;-71
2023/11/22 12:18:51;;;;;;;46.80;20.45;;;5.70;99.90;;;;;;5030575;28;20473;-72
2023/11/22 12:21:18;;;;;;;45.78;21.95;;;5.70;99.90;;;;;;5031270;28;20557;-71
2023/11/22 12:23:46;;;;;;;50.55;21.85;;;5.80;99.90;;;;;;5037339;28;20071;-71
2023/11/22 12:26:14;;;;;;;51.08;23.70;;;5.80;99.90;;;;;;5049171;28;20029;-71
2023/11/22 12:28:41;;;;;;;51.38;23.23;;;5.80;99.90;;;;;;5037867;28;20520;-71
2023/11/22 12:31:09;;;;;;;51.53;22.08;;;5.80;99.90;;;;;;5031398;28;20040;-71
2023/11/22 12:33:35;;;;;;;50.38;22.10;;;5.90;99.90;;;;;;5045507;28;20028;-71
2023/11/22 12:36:01;;;;;;;54.60;24.70;;;5.90;99.90;;;;;;5038489;28;20063;-72